Time;durP1;ratioP1;P1;durP2;ratioP2;P2;SDS_P1;SDS_P2;PMS_P1;PMS_P2;Temp;Humidity;BMP_temperature;BMP_pressure;BME280_temperature;BME280_humidity;BME280_pressure;Samples;Min_cycle;Max_cycle;Signal;HPM_P1;HPM_P2
2022/05/06 00:02:15;;;;;;;69.82;36.58;;;;;;;;;;5083986;28;20096;-68
2022/05/06 00:04:45;;;;;;;65.35;35.78;;;;;;;;;;5083011;28;20051;-67
2022/05/06 00:07:12;;;;;;;70.15;37.75;;;;;;;;;;5084183;28;20040;-67
2022/05/06 00:09:38;;;;;;;68.77;38.60;;;;;;;;;;5084319;28;20041;-67
2022/05/06 00:12:05;;;;;;;66.95;37.58;;;;;;;;;;5084178;28;20051;-67
2022/05/06 00:14:31;;;;;;;70.72;36.38;;;;;;;;;;5084205;28;20037;-67
2022/05/06 00:16:57;;;;;;;71.32;39.20;;;;;;;;;;5084059;28;20096;-67
2022/05/06 00:19:23;;;;;;;70.30;37.53;;;;;;;;;;5086365;28;20127;-66
2022/05/06 00:21:49;;;;;;;69.07;38.90;;;;;;;;;;5087828;28;20036;-66
2022/05/06 00:24:15;;;;;;;67.00;38.30;;;;;;;;;;5086478;28;20059;-67
2022/05/06 00:26:42;;;;;;;68.25;36.28;;;;;;;;;;5087869;28;20067;-67
2022/05/06 00:29:09;;;;;;;64.28;36.05;;;;;;;;;;5087987;28;20048;-67
2022/05/06 00:31:35;;;;;;;67.57;36.67;;;;;;;;;;5087895;28;20040;-67
2022/05/06 00:34:01;;;;;;;61.15;35.00;;;;;;;;;;5087608;28;20120;-67
2022/05/06 00:36:27;;;;;;;61.38;35.50;;;;;;;;;;5086394;28;20100;-67
2022/05/06 00:38:54;;;;;;;76.97;37.50;;;;;;;;;;5087595;28;20051;-67
2022/05/06 00:41:20;;;;;;;60.60;34.53;;;;;;;;;;5086448;28;20180;-67
2022/05/06 00:43:46;;;;;;;56.88;33.28;;;;;;;;;;5086325;28;20056;-67
2022/05/06 00:46:17;;;;;;;57.10;33.50;;;;;;;;;;5087011;28;20052;-67
2022/05/06 00:48:44;;;;;;;68.88;36.00;;;;;;;;;;5087372;28;20052;-67
2022/05/06 00:51:11;;;;;;;59.08;32.22;;;;;;;;;;5087643;28;20128;-66
2022/05/06 00:53:38;;;;;;;58.30;32.80;;;;;;;;;;5086024;28;20087;-67
2022/05/06 00:56:05;;;;;;;60.33;32.45;;;;;;;;;;5087570;28;20079;-67
2022/05/06 00:58:34;;;;;;;72.30;37.63;;;;;;;;;;5087301;28;20071;-67
2022/05/06 01:01:02;;;;;;;76.50;38.22;;;;;;;;;;5087144;28;20342;-67
2022/05/06 01:03:28;;;;;;;83.93;41.70;;;;;;;;;;5087190;28;20056;-67
2022/05/06 01:05:54;;;;;;;74.18;39.60;;;;;;;;;;5087046;28;20124;-67
2022/05/06 01:08:21;;;;;;;70.07;37.53;;;;;;;;;;5086806;28;20053;-67
2022/05/06 01:10:47;;;;;;;64.28;35.55;;;;;;;;;;5087119;28;20108;-67
2022/05/06 01:13:13;;;;;;;65.93;36.60;;;;;;;;;;5087008;28;20048;-67
2022/05/06 01:15:40;;;;;;;63.03;33.97;;;;;;;;;;5086969;28;20055;-67
2022/05/06 01:18:10;;;;;;;69.45;38.88;;;;;;;;;;5086960;28;20044;-67
2022/05/06 01:20:39;;;;;;;69.75;36.90;;;;;;;;;;5086957;28;20049;-67
2022/05/06 01:23:05;;;;;;;66.65;37.22;;;;;;;;;;5086804;28;20107;-67
2022/05/06 01:25:31;;;;;;;74.45;39.08;;;;;;;;;;5085557;28;20076;-67
2022/05/06 01:28:01;;;;;;;79.05;42.20;;;;;;;;;;5086592;28;20045;-67
2022/05/06 01:30:34;;;;;;;87.45;44.17;;;;;;;;;;5086364;28;20086;-67
2022/05/06 01:33:01;;;;;;;89.20;44.38;;;;;;;;;;5085311;28;20067;-68
2022/05/06 01:35:28;;;;;;;97.25;46.58;;;;;;;;;;5086658;28;20060;-67
2022/05/06 01:37:57;;;;;;;95.90;47.75;;;;;;;;;;5086357;28;20051;-67
2022/05/06 01:40:25;;;;;;;87.15;46.33;;;;;;;;;;5086580;28;20117;-66
2022/05/06 01:42:52;;;;;;;85.40;43.17;;;;;;;;;;5086402;28;20060;-67
2022/05/06 01:45:19;;;;;;;86.20;45.00;;;;;;;;;;5086537;28;20108;-67
2022/05/06 01:47:45;;;;;;;86.22;41.97;;;;;;;;;;5086198;28;20113;-67
2022/05/06 01:50:13;;;;;;;81.30;41.08;;;;;;;;;;5086365;28;20041;-68
2022/05/06 01:53:14;;;;;;;80.25;41.15;;;;;;;;;;5086044;28;20061;-67
2022/05/06 01:55:40;;;;;;;84.65;41.90;;;;;;;;;;5085171;28;20056;-67
2022/05/06 01:58:06;;;;;;;86.53;43.63;;;;;;;;;;5072096;28;20075;-67
2022/05/06 02:00:36;;;;;;;86.32;44.40;;;;;;;;;;5066194;28;20045;-67
2022/05/06 02:03:02;;;;;;;80.53;40.85;;;;;;;;;;5066020;28;20099;-66
2022/05/06 02:05:28;;;;;;;81.20;43.13;;;;;;;;;;5066080;28;20053;-66
2022/05/06 02:07:54;;;;;;;93.03;44.95;;;;;;;;;;5065780;28;20041;-67
2022/05/06 02:10:22;;;;;;;89.93;44.42;;;;;;;;;;5065930;28;20110;-66
2022/05/06 02:12:48;;;;;;;86.82;44.28;;;;;;;;;;5065881;28;20037;-67
2022/05/06 02:15:18;;;;;;;99.10;48.47;;;;;;;;;;5065996;28;20040;-67
2022/05/06 02:17:44;;;;;;;103.72;51.13;;;;;;;;;;5065679;28;20041;-66
2022/05/06 02:20:12;;;;;;;108.90;52.40;;;;;;;;;;5065755;28;20045;-67
2022/05/06 02:22:42;;;;;;;;;;;;;;;;;;5065924;28;20046;-66
2022/05/06 02:25:09;;;;;;;110.22;52.65;;;;;;;;;;5065738;28;19920;-66
2022/05/06 02:27:38;;;;;;;135.35;60.47;;;;;;;;;;5065705;28;20045;-66
2022/05/06 02:35:38;;;;;;;131.35;61.25;;;;;;;;;;5065454;28;20071;-66
2022/05/06 02:38:08;;;;;;;143.32;66.53;;;;;;;;;;5065185;28;20105;-67
2022/05/06 02:40:35;;;;;;;124.82;60.97;;;;;;;;;;5064457;28;20052;-66
2022/05/06 02:43:01;;;;;;;134.75;60.85;;;;;;;;;;5065181;28;20154;-66
2022/05/06 02:45:27;;;;;;;120.72;57.80;;;;;;;;;;5065070;28;20070;-67
2022/05/06 02:47:54;;;;;;;105.47;51.75;;;;;;;;;;5065105;28;20088;-67
2022/05/06 02:50:20;;;;;;;112.45;55.80;;;;;;;;;;5065156;28;20048;-67
2022/05/06 02:52:46;;;;;;;141.18;61.83;;;;;;;;;;5064809;28;20061;-66
2022/05/06 02:55:12;;;;;;;121.50;56.88;;;;;;;;;;5064739;28;20052;-66
2022/05/06 02:57:38;;;;;;;128.13;59.35;;;;;;;;;;5064856;28;20069;-66
2022/05/06 03:00:05;;;;;;;117.93;55.08;;;;;;;;;;5064687;28;20583;-66
2022/05/06 03:02:31;;;;;;;123.35;55.63;;;;;;;;;;5079836;28;20481;-67
2022/05/06 03:04:57;;;;;;;111.18;56.40;;;;;;;;;;5080291;28;20053;-67
2022/05/06 03:07:23;;;;;;;112.03;52.70;;;;;;;;;;5064760;28;20075;-66
2022/05/06 03:09:52;;;;;;;110.10;53.50;;;;;;;;;;5064900;28;20064;-66
2022/05/06 03:12:19;;;;;;;106.35;49.78;;;;;;;;;;5064785;28;20041;-66
2022/05/06 03:14:45;;;;;;;119.70;51.38;;;;;;;;;;5064579;28;20047;-67
2022/05/06 03:17:12;;;;;;;119.43;51.88;;;;;;;;;;5064816;28;20174;-66
2022/05/06 03:19:38;;;;;;;164.68;56.15;;;;;;;;;;5064716;28;20041;-66
2022/05/06 03:22:04;;;;;;;307.65;61.20;;;;;;;;;;5063177;28;20057;-67
2022/05/06 03:24:30;;;;;;;282.38;66.18;;;;;;;;;;5080030;28;20057;-66
2022/05/06 03:26:57;;;;;;;689.97;95.43;;;;;;;;;;5080022;28;20049;-66
2022/05/06 03:29:23;;;;;;;532.55;84.43;;;;;;;;;;5064385;28;20041;-66
2022/05/06 03:31:49;;;;;;;628.47;93.47;;;;;;;;;;5079885;28;20048;-66
2022/05/06 03:34:16;;;;;;;332.70;70.30;;;;;;;;;;5064221;28;20049;-67
2022/05/06 03:36:42;;;;;;;466.63;68.93;;;;;;;;;;5064338;28;20116;-67
2022/05/06 03:39:08;;;;;;;361.92;57.38;;;;;;;;;;5064395;28;20065;-67
2022/05/06 03:41:34;;;;;;;603.47;69.80;;;;;;;;;;5064427;28;20116;-67
2022/05/06 03:44:00;;;;;;;465.48;68.03;;;;;;;;;;5079764;28;20301;-67
2022/05/06 03:46:26;;;;;;;468.02;66.35;;;;;;;;;;5064242;28;20061;-66
2022/05/06 03:48:52;;;;;;;509.08;69.30;;;;;;;;;;5064344;28;20053;-66
2022/05/06 03:51:21;;;;;;;489.95;67.70;;;;;;;;;;5064271;28;20041;-66
2022/05/06 03:53:51;;;;;;;543.65;69.80;;;;;;;;;;5066646;28;20047;-67
2022/05/06 03:56:18;;;;;;;541.33;73.60;;;;;;;;;;5068444;28;20072;-67
2022/05/06 03:58:44;;;;;;;714.15;80.32;;;;;;;;;;5068273;28;20056;-67
2022/05/06 04:01:11;;;;;;;745.05;88.65;;;;;;;;;;5068323;28;20053;-66
2022/05/06 04:03:38;;;;;;;582.92;78.65;;;;;;;;;;5067971;28;20051;-66
2022/05/06 04:06:04;;;;;;;476.98;66.55;;;;;;;;;;5068276;28;20082;-66
2022/05/06 04:08:32;;;;;;;901.38;101.65;;;;;;;;;;5068113;28;20045;-66
2022/05/06 04:10:58;;;;;;;541.85;75.60;;;;;;;;;;5068185;28;20049;-66
2022/05/06 04:13:24;;;;;;;556.90;76.72;;;;;;;;;;5083463;28;20041;-66
2022/05/06 04:15:51;;;;;;;898.28;97.15;;;;;;;;;;5068120;28;20053;-67
2022/05/06 04:18:17;;;;;;;520.30;80.15;;;;;;;;;;5067943;28;20076;-66
2022/05/06 04:23:32;;;;;;;703.90;97.38;;;;;;;;;;5067724;28;20056;-67
2022/05/06 04:25:58;;;;;;;439.27;78.47;;;;;;;;;;5067702;28;20052;-67
2022/05/06 04:28:25;;;;;;;436.17;78.13;;;;;;;;;;5067818;28;20036;-66
2022/05/06 04:30:51;;;;;;;551.03;89.38;;;;;;;;;;5067844;28;20052;-66
2022/05/06 04:33:21;;;;;;;574.20;91.07;;;;;;;;;;5067508;28;20096;-66
2022/05/06 04:35:48;;;;;;;358.58;77.63;;;;;;;;;;5083258;28;20078;-66
2022/05/06 04:38:14;;;;;;;464.17;89.20;;;;;;;;;;5082925;28;20131;-66
2022/05/06 04:40:40;;;;;;;309.10;71.57;;;;;;;;;;5067666;28;20044;-67
2022/05/06 04:43:07;;;;;;;401.98;77.50;;;;;;;;;;5082988;28;20061;-66
2022/05/06 04:45:40;;;;;;;516.85;89.20;;;;;;;;;;5067342;28;20148;-66
2022/05/06 04:48:07;;;;;;;400.80;78.53;;;;;;;;;;5067398;28;20065;-66
2022/05/06 04:50:34;;;;;;;540.63;91.23;;;;;;;;;;5067487;28;20128;-66
2022/05/06 04:53:01;;;;;;;323.95;74.22;;;;;;;;;;5067121;28;20321;-66
2022/05/06 04:55:27;;;;;;;379.20;68.70;;;;;;;;;;5082663;28;20492;-66
2022/05/06 04:57:53;;;;;;;268.83;63.88;;;;;;;;;;5067335;28;20041;-66
2022/05/06 05:00:20;;;;;;;338.95;67.18;;;;;;;;;;5067324;28;20041;-66
2022/05/06 05:02:46;;;;;;;272.70;59.38;;;;;;;;;;5067085;28;20109;-66
2022/05/06 05:05:12;;;;;;;260.20;55.72;;;;;;;;;;5066685;28;20041;-66
2022/05/06 05:07:39;;;;;;;216.35;53.60;;;;;;;;;;5067003;28;20477;-67
2022/05/06 05:10:06;;;;;;;157.50;46.60;;;;;;;;;;5067112;28;20071;-67
2022/05/06 05:12:32;;;;;;;196.02;50.17;;;;;;;;;;5067175;28;20427;-67
2022/05/06 05:14:58;;;;;;;200.82;52.05;;;;;;;;;;5066924;28;20049;-66
2022/05/06 05:17:24;;;;;;;229.35;49.75;;;;;;;;;;5082372;28;20053;-66
2022/05/06 05:19:50;;;;;;;265.65;41.50;;;;;;;;;;5066930;28;20045;-66
2022/05/06 05:22:18;;;;;;;298.40;43.67;;;;;;;;;;5066622;28;20052;-66
2022/05/06 05:24:44;;;;;;;243.55;37.92;;;;;;;;;;5082373;28;20044;-66
2022/05/06 05:27:10;;;;;;;248.20;41.15;;;;;;;;;;5066744;28;20044;-66
2022/05/06 05:29:37;;;;;;;222.55;43.80;;;;;;;;;;5066639;28;20620;-66
2022/05/06 05:32:03;;;;;;;288.85;41.78;;;;;;;;;;5066639;28;20049;-66
2022/05/06 05:34:29;;;;;;;182.35;39.78;;;;;;;;;;5066382;28;20056;-66
2022/05/06 05:36:55;;;;;;;167.93;39.15;;;;;;;;;;5066203;28;20037;-66
2022/05/06 05:39:21;;;;;;;216.52;41.63;;;;;;;;;;5066442;28;20045;-66
2022/05/06 05:41:47;;;;;;;272.75;43.08;;;;;;;;;;5066570;28;20100;-66
2022/05/06 05:49:44;;;;;;;167.43;45.42;;;;;;;;;;5066428;28;20105;-66
2022/05/06 05:52:10;;;;;;;180.83;46.97;;;;;;;;;;5066275;28;20049;-66
2022/05/06 05:54:36;;;;;;;212.75;47.20;;;;;;;;;;5066253;28;20049;-66
2022/05/06 05:57:03;;;;;;;136.93;40.58;;;;;;;;;;5066207;28;20068;-66
2022/05/06 05:59:29;;;;;;;144.20;43.42;;;;;;;;;;5066302;28;20118;-66
2022/05/06 06:01:56;;;;;;;206.38;42.15;;;;;;;;;;5066019;28;20051;-66
2022/05/06 06:04:22;;;;;;;203.65;43.40;;;;;;;;;;5065892;28;20411;-66
2022/05/06 06:06:48;;;;;;;170.98;49.35;;;;;;;;;;5065872;28;20073;-68
2022/05/06 06:09:14;;;;;;;254.70;50.42;;;;;;;;;;5065796;28;20105;-65
2022/05/06 06:11:41;;;;;;;149.88;46.08;;;;;;;;;;5065743;28;20045;-66
2022/05/06 06:14:07;;;;;;;271.20;50.65;;;;;;;;;;5081239;28;20132;-66
2022/05/06 06:16:33;;;;;;;175.52;49.80;;;;;;;;;;5064753;28;20050;-66
2022/05/06 06:18:59;;;;;;;130.50;46.30;;;;;;;;;;5065755;28;20060;-66
2022/05/06 06:21:26;;;;;;;241.63;46.47;;;;;;;;;;5081205;28;20045;-66
2022/05/06 06:23:52;;;;;;;146.25;45.05;;;;;;;;;;5065521;28;20045;-66
2022/05/06 06:26:18;;;;;;;209.00;51.28;;;;;;;;;;5065536;28;20072;-66
2022/05/06 06:28:44;;;;;;;192.35;47.35;;;;;;;;;;5069267;28;20424;-66
2022/05/06 06:31:10;;;;;;;156.48;47.10;;;;;;;;;;5082693;28;20093;-66
2022/05/06 06:33:39;;;;;;;132.77;45.95;;;;;;;;;;5085167;28;20108;-66
2022/05/06 06:36:06;;;;;;;121.45;42.22;;;;;;;;;;5085635;28;20040;-66
2022/05/06 06:38:32;;;;;;;127.30;44.45;;;;;;;;;;5085354;28;20150;-67
2022/05/06 06:40:59;;;;;;;109.85;43.85;;;;;;;;;;5085667;28;20080;-66
2022/05/06 06:43:25;;;;;;;96.18;37.55;;;;;;;;;;5085226;28;20045;-66
2022/05/06 06:45:52;;;;;;;70.53;34.67;;;;;;;;;;5085125;28;20044;-66
2022/05/06 06:48:19;;;;;;;73.18;34.85;;;;;;;;;;5067081;28;20052;-66
2022/05/06 06:50:45;;;;;;;72.45;35.15;;;;;;;;;;5085138;28;20049;-66
2022/05/06 06:53:11;;;;;;;63.67;33.35;;;;;;;;;;5084947;28;20052;-66
2022/05/06 06:55:37;;;;;;;66.43;32.25;;;;;;;;;;5083934;28;20171;-66
2022/05/06 06:58:03;;;;;;;64.15;32.05;;;;;;;;;;5085032;28;20047;-67
2022/05/06 07:00:29;;;;;;;70.30;34.55;;;;;;;;;;5083903;28;20052;-66
2022/05/06 07:02:57;;;;;;;62.45;32.97;;;;;;;;;;5084917;28;20050;-66
2022/05/06 07:05:23;;;;;;;63.30;33.30;;;;;;;;;;5085001;28;20040;-65
2022/05/06 07:11:52;;;;;;;60.22;30.48;;;;;;;;;;5085041;28;20055;-66
2022/05/06 07:13:24;;;;;;;46.35;26.98;;;;;;;;;;5084645;28;20060;-66
2022/05/06 07:15:50;;;;;;;41.83;21.80;;;;;;;;;;5084795;28;20567;-66
2022/05/06 07:18:16;;;;;;;34.65;20.95;;;;;;;;;;5083532;28;20048;-66
2022/05/06 07:20:42;;;;;;;31.83;20.05;;;;;;;;;;5084806;28;20040;-66
2022/05/06 07:23:10;;;;;;;29.48;19.63;;;;;;;;;;5084648;28;20051;-66
2022/05/06 07:25:36;;;;;;;33.38;21.65;;;;;;;;;;5084594;28;20543;-66
2022/05/06 07:28:03;;;;;;;30.48;20.08;;;;;;;;;;5084540;28;20075;-68
2022/05/06 07:30:29;;;;;;;34.72;21.20;;;;;;;;;;5084640;28;20147;-66
2022/05/06 07:32:55;;;;;;;28.98;19.77;;;;;;;;;;5084506;28;20053;-67
2022/05/06 07:35:21;;;;;;;30.85;19.40;;;;;;;;;;5084406;28;20145;-66
2022/05/06 07:37:47;;;;;;;29.75;19.48;;;;;;;;;;5084538;28;20128;-68
2022/05/06 07:40:14;;;;;;;26.75;16.17;;;;;;;;;;5083402;28;20052;-68
2022/05/06 07:42:41;;;;;;;26.95;18.75;;;;;;;;;;5083946;28;20095;-66
2022/05/06 07:45:07;;;;;;;26.30;16.98;;;;;;;;;;5084438;28;20044;-67
2022/05/06 07:47:34;;;;;;;24.80;16.95;;;;;;;;;;5084124;28;20051;-66
2022/05/06 07:50:00;;;;;;;23.25;14.93;;;;;;;;;;5084512;28;20394;-66
2022/05/06 07:52:26;;;;;;;24.08;17.77;;;;;;;;;;5084428;28;20040;-67
2022/05/06 07:54:52;;;;;;;26.38;17.25;;;;;;;;;;5083893;28;20100;-67
2022/05/06 07:57:18;;;;;;;22.02;15.32;;;;;;;;;;5084532;28;20048;-67
2022/05/06 07:59:44;;;;;;;20.05;13.65;;;;;;;;;;5084279;28;20119;-68
2022/05/06 08:04:55;;;;;;;18.10;13.80;;;;;;;;;;5084387;28;20419;-67
2022/05/06 08:07:21;;;;;;;19.42;13.00;;;;;;;;;;5082672;28;20072;-66
2022/05/06 08:09:47;;;;;;;15.18;11.20;;;;;;;;;;5084463;28;20113;-66
2022/05/06 08:12:13;;;;;;;15.82;11.77;;;;;;;;;;5084320;28;20067;-66
2022/05/06 08:14:39;;;;;;;15.20;11.25;;;;;;;;;;5082589;28;20045;-66
2022/05/06 08:17:06;;;;;;;17.23;11.30;;;;;;;;;;5082914;28;20439;-66
2022/05/06 08:19:33;;;;;;;19.05;9.82;;;;;;;;;;5083989;28;20095;-67
2022/05/06 08:21:59;;;;;;;11.82;9.82;;;;;;;;;;5082744;28;20044;-67
2022/05/06 08:24:25;;;;;;;13.38;9.90;;;;;;;;;;5084074;28;20033;-68
2022/05/06 08:26:51;;;;;;;12.32;9.50;;;;;;;;;;5084207;28;20096;-67
2022/05/06 08:29:17;;;;;;;12.60;9.55;;;;;;;;;;5083596;28;20048;-66
2022/05/06 08:31:43;;;;;;;13.05;9.93;;;;;;;;;;5082653;28;20048;-66
2022/05/06 08:34:10;;;;;;;15.52;11.20;;;;;;;;;;5083749;28;20072;-66
2022/05/06 08:36:37;;;;;;;14.35;10.65;;;;;;;;;;5083385;28;20044;-67
2022/05/06 08:39:04;;;;;;;18.83;12.15;;;;;;;;;;5084446;28;20082;-66
2022/05/06 08:41:31;;;;;;;13.07;10.40;;;;;;;;;;5087402;28;20479;-67
2022/05/06 08:43:58;;;;;;;16.08;11.57;;;;;;;;;;5069517;28;20048;-66
2022/05/06 08:51:59;;;;;;;15.63;10.25;;;;;;;;;;5086976;28;20062;-67
2022/05/06 08:54:25;;;;;;;;;;;;;;;;;;5087918;28;20056;-66
2022/05/06 08:56:54;;;;;;;11.07;7.95;;;;;;;;;;5086497;28;19942;-67
2022/05/06 08:59:21;;;;;;;11.40;8.15;;;;;;;;;;5085865;28;20072;-67
2022/05/06 09:01:47;;;;;;;8.95;7.60;;;;;;;;;;5086911;28;20064;-67
2022/05/06 09:04:13;;;;;;;11.23;8.57;;;;;;;;;;5085861;28;20044;-66
2022/05/06 09:06:39;;;;;;;9.43;8.00;;;;;;;;;;5087337;28;20044;-66
2022/05/06 09:09:05;;;;;;;7.55;6.70;;;;;;;;;;5087360;28;20045;-67
2022/05/06 09:14:17;;;;;;;6.60;5.20;;;;;;;;;;5085973;28;20075;-68
2022/05/06 09:16:47;;;;;;;5.60;4.95;;;;;;;;;;5086638;28;20040;-67
2022/05/06 09:19:15;;;;;;;6.68;5.40;;;;;;;;;;5086751;28;20036;-66
2022/05/06 09:21:59;;;;;;;5.80;4.90;;;;;;;;;;5085723;28;20048;-66
2022/05/06 09:24:27;;;;;;;6.22;5.38;;;;;;;;;;5083191;28;20074;-67
2022/05/06 09:26:58;;;;;;;7.80;5.93;;;;;;;;;;5083962;28;20506;-67
2022/05/06 09:29:42;;;;;;;6.75;6.03;;;;;;;;;;5077076;28;20044;-67
2022/05/06 09:32:17;;;;;;;6.85;5.95;;;;;;;;;;5086931;28;20041;-67
2022/05/06 09:34:44;;;;;;;7.18;6.38;;;;;;;;;;5081190;28;20041;-66
2022/05/06 09:37:11;;;;;;;8.00;6.05;;;;;;;;;;5080513;28;20055;-67
2022/05/06 09:39:40;;;;;;;9.90;5.72;;;;;;;;;;5083361;28;20049;-67
2022/05/06 09:42:07;;;;;;;8.15;5.97;;;;;;;;;;5080638;28;20052;-64
2022/05/06 09:44:33;;;;;;;7.30;5.37;;;;;;;;;;5083217;28;20123;-64
2022/05/06 09:47:11;;;;;;;4.65;4.15;;;;;;;;;;5096095;28;20299;-63
2022/05/06 09:49:43;;;;;;;7.25;4.68;;;;;;;;;;5086831;28;20444;-61
2022/05/06 09:52:10;;;;;;;6.97;4.68;;;;;;;;;;5091496;28;20515;-67
2022/05/06 09:54:36;;;;;;;7.85;5.10;;;;;;;;;;5089869;28;20035;-69
2022/05/06 09:57:06;;;;;;;7.75;5.53;;;;;;;;;;5085975;28;20041;-66
2022/05/06 09:59:32;;;;;;;6.03;5.07;;;;;;;;;;5085415;28;20044;-65
2022/05/06 10:01:58;;;;;;;6.88;5.32;;;;;;;;;;5080265;28;20036;-69
2022/05/06 10:04:24;;;;;;;6.00;5.05;;;;;;;;;;5090778;28;20048;-70
2022/05/06 10:06:51;;;;;;;5.63;4.95;;;;;;;;;;5090843;28;20075;-68
2022/05/06 10:09:20;;;;;;;9.02;6.10;;;;;;;;;;5084566;28;20040;-68
2022/05/06 10:11:47;;;;;;;8.27;5.88;;;;;;;;;;5085524;28;20043;-69
2022/05/06 10:14:14;;;;;;;6.35;5.70;;;;;;;;;;5086231;28;20048;-69
2022/05/06 10:16:41;;;;;;;6.20;5.60;;;;;;;;;;5079562;28;20468;-72
2022/05/06 10:19:27;;;;;;;6.00;5.47;;;;;;;;;;5075431;28;20055;-76
2022/05/06 10:21:55;;;;;;;6.15;5.55;;;;;;;;;;5085479;28;20089;-75
2022/05/06 10:24:22;;;;;;;11.50;5.65;;;;;;;;;;5072200;28;20048;-75
2022/05/06 10:26:49;;;;;;;6.22;5.18;;;;;;;;;;5076505;28;20041;-65
2022/05/06 10:32:27;;;;;;;6.97;5.97;;;;;;;;;;5080435;28;20070;-70
2022/05/06 10:35:02;;;;;;;6.63;4.82;;;;;;;;;;5086641;28;20040;-68
2022/05/06 10:37:45;;;;;;;5.53;4.90;;;;;;;;;;5084396;28;20051;-68
2022/05/06 10:40:40;;;;;;;6.15;4.75;;;;;;;;;;5086047;28;20048;-68
2022/05/06 10:43:06;;;;;;;6.38;4.25;;;;;;;;;;5078354;28;20060;-70
2022/05/06 10:45:36;;;;;;;4.40;3.40;;;;;;;;;;5088570;28;20504;-68
2022/05/06 10:48:17;;;;;;;5.65;4.90;;;;;;;;;;5090300;28;20092;-67
2022/05/06 10:50:44;;;;;;;4.85;4.05;;;;;;;;;;5083553;28;20041;-67
2022/05/06 10:53:30;;;;;;;4.15;3.75;;;;;;;;;;5083196;28;20060;-68
2022/05/06 10:55:56;;;;;;;4.53;3.85;;;;;;;;;;5092962;28;20554;-67
2022/05/06 10:58:23;;;;;;;4.47;3.58;;;;;;;;;;5086539;28;20044;-66
2022/05/06 11:00:49;;;;;;;5.88;3.75;;;;;;;;;;5084668;28;20063;-66
2022/05/06 11:03:17;;;;;;;7.03;3.40;;;;;;;;;;5083023;28;20214;-67
2022/05/06 11:05:43;;;;;;;4.38;3.60;;;;;;;;;;5086908;28;20067;-67
2022/05/06 11:08:09;;;;;;;4.45;3.13;;;;;;;;;;5091266;28;20078;-68
2022/05/06 11:10:36;;;;;;;3.50;3.17;;;;;;;;;;5084021;28;20036;-68
2022/05/06 11:13:07;;;;;;;5.22;3.67;;;;;;;;;;5091741;28;20040;-69
2022/05/06 11:15:35;;;;;;;3.58;3.28;;;;;;;;;;5083034;28;20046;-66
2022/05/06 11:18:04;;;;;;;4.15;3.50;;;;;;;;;;5087455;28;20068;-67
2022/05/06 11:20:37;;;;;;;3.03;2.72;;;;;;;;;;5084339;28;20039;-64
2022/05/06 11:23:11;;;;;;;7.80;2.95;;;;;;;;;;5082448;28;20045;-65
2022/05/06 11:25:43;;;;;;;4.63;2.75;;;;;;;;;;5084265;28;20052;-66
2022/05/06 11:28:25;;;;;;;5.97;2.97;;;;;;;;;;5084854;28;20108;-64
2022/05/06 11:30:52;;;;;;;8.98;3.67;;;;;;;;;;5083391;28;20037;-65
2022/05/06 11:33:24;;;;;;;7.07;2.72;;;;;;;;;;5084602;28;20045;-64
2022/05/06 11:35:51;;;;;;;3.95;2.83;;;;;;;;;;5082138;28;20052;-64
2022/05/06 11:38:29;;;;;;;4.97;2.50;;;;;;;;;;5082725;28;20052;-64
2022/05/06 11:40:55;;;;;;;10.50;2.63;;;;;;;;;;5082678;28;20055;-64
2022/05/06 11:43:22;;;;;;;3.67;2.58;;;;;;;;;;5083697;28;20043;-64
2022/05/06 11:48:40;;;;;;;2.45;2.25;;;;;;;;;;5082944;28;20048;-67
2022/05/06 11:51:06;;;;;;;4.45;2.67;;;;;;;;;;5084234;28;20488;-72
2022/05/06 11:53:34;;;;;;;5.75;2.63;;;;;;;;;;5085308;28;20068;-72
2022/05/06 11:56:01;;;;;;;5.35;3.08;;;;;;;;;;5089843;28;20044;-74
2022/05/06 11:58:27;;;;;;;2.83;2.53;;;;;;;;;;5081744;28;20059;-75
2022/05/06 12:00:54;;;;;;;3.88;2.58;;;;;;;;;;5082418;28;20424;-74
2022/05/06 12:03:20;;;;;;;6.10;3.22;;;;;;;;;;5080374;28;20048;-69
2022/05/06 12:05:58;;;;;;;4.03;2.10;;;;;;;;;;5083563;28;20251;-65
2022/05/06 12:08:29;;;;;;;3.60;2.50;;;;;;;;;;5083695;28;20044;-66
2022/05/06 12:11:13;;;;;;;4.57;2.60;;;;;;;;;;5083000;28;20044;-62
2022/05/06 12:13:40;;;;;;;3.03;2.63;;;;;;;;;;5079338;28;20044;-66
2022/05/06 12:16:08;;;;;;;3.35;2.63;;;;;;;;;;5083555;28;20067;-67
2022/05/06 12:18:34;;;;;;;3.92;2.45;;;;;;;;;;5085031;28;20048;-66
2022/05/06 12:21:01;;;;;;;3.25;2.50;;;;;;;;;;5085961;28;20045;-66
2022/05/06 12:23:28;;;;;;;4.47;2.05;;;;;;;;;;5086850;28;20044;-67
2022/05/06 12:25:55;;;;;;;4.35;2.60;;;;;;;;;;5087182;28;20071;-67
2022/05/06 12:28:21;;;;;;;;;;;;;;;;;;5088517;28;20070;-67
2022/05/06 12:30:55;;;;;;;7.53;1.98;;;;;;;;;;5086569;28;20020;-67
2022/05/06 12:33:22;;;;;;;3.15;1.60;;;;;;;;;;5087796;28;20063;-67
2022/05/06 12:35:59;;;;;;;2.67;1.65;;;;;;;;;;5087680;28;20083;-66
2022/05/06 12:38:41;;;;;;;3.95;2.65;;;;;;;;;;5087794;28;20485;-66
2022/05/06 12:41:26;;;;;;;2.75;1.63;;;;;;;;;;5087654;28;20060;-66
2022/05/06 12:43:53;;;;;;;6.13;2.30;;;;;;;;;;5087674;28;20044;-66
2022/05/06 12:46:30;;;;;;;3.55;1.90;;;;;;;;;;5087311;28;20048;-66
2022/05/06 12:51:43;;;;;;;2.15;1.88;;;;;;;;;;5067387;28;20052;-66
2022/05/06 12:54:10;;;;;;;2.13;1.80;;;;;;;;;;5067234;28;20044;-66
2022/05/06 12:56:37;;;;;;;2.15;1.77;;;;;;;;;;5067480;28;20135;-66
2022/05/06 12:59:03;;;;;;;3.85;2.20;;;;;;;;;;5067405;28;20123;-66
2022/05/06 13:01:30;;;;;;;2.95;2.53;;;;;;;;;;5067347;28;20049;-67
2022/05/06 13:03:56;;;;;;;4.55;2.42;;;;;;;;;;5068095;28;20071;-66
2022/05/06 13:06:22;;;;;;;2.87;2.20;;;;;;;;;;5087018;28;20104;-66
2022/05/06 13:08:48;;;;;;;2.97;2.47;;;;;;;;;;5087053;28;20048;-66
2022/05/06 13:11:15;;;;;;;4.72;2.20;;;;;;;;;;5087184;28;20080;-67
2022/05/06 13:13:41;;;;;;;2.83;2.53;;;;;;;;;;5086963;28;20044;-67
2022/05/06 13:16:08;;;;;;;5.43;3.30;;;;;;;;;;5087013;28;20052;-67
2022/05/06 13:18:34;;;;;;;;;;;;;;;;;;5087440;28;20108;-66
2022/05/06 13:21:00;;;;;;;3.13;2.20;;;;;;;;;;5080632;28;19952;-67
2022/05/06 13:23:27;;;;;;;2.90;2.30;;;;;;;;;;5066919;28;20080;-67
2022/05/06 13:25:53;;;;;;;4.13;2.15;;;;;;;;;;5065249;28;20057;-67
2022/05/06 13:28:19;;;;;;;3.55;2.70;;;;;;;;;;5065568;28;20179;-66
2022/05/06 13:30:45;;;;;;;5.45;2.60;;;;;;;;;;5048796;28;20045;-66
2022/05/06 13:33:11;;;;;;;3.73;2.70;;;;;;;;;;5066575;28;20041;-66
2022/05/06 13:35:37;;;;;;;3.53;2.22;;;;;;;;;;5081815;28;20045;-67
2022/05/06 13:38:03;;;;;;;5.28;2.75;;;;;;;;;;5085785;28;20079;-67
2022/05/06 13:40:29;;;;;;;3.90;2.83;;;;;;;;;;5086665;28;20060;-66
2022/05/06 13:42:56;;;;;;;3.13;2.63;;;;;;;;;;5086804;28;20388;-67
2022/05/06 13:45:22;;;;;;;4.95;3.40;;;;;;;;;;5086544;28;20068;-66
2022/05/06 13:47:48;;;;;;;7.53;4.13;;;;;;;;;;5085168;28;20477;-67
2022/05/06 13:50:14;;;;;;;6.20;3.70;;;;;;;;;;5086466;28;20044;-67
2022/05/06 13:52:40;;;;;;;5.10;3.08;;;;;;;;;;5078109;28;20052;-66
2022/05/06 13:55:08;;;;;;;4.88;3.10;;;;;;;;;;5066528;28;20134;-67
2022/05/06 14:00:22;;;;;;;4.15;3.42;;;;;;;;;;5066252;28;20215;-67
2022/05/06 14:02:49;;;;;;;7.07;4.00;;;;;;;;;;5065943;28;20047;-66
2022/05/06 14:05:15;;;;;;;3.50;2.83;;;;;;;;;;5064779;28;20052;-66
2022/05/06 14:07:41;;;;;;;6.93;3.40;;;;;;;;;;5064714;28;20049;-66
2022/05/06 14:10:08;;;;;;;4.57;3.37;;;;;;;;;;5064563;28;20047;-66
2022/05/06 14:12:34;;;;;;;6.85;4.03;;;;;;;;;;5066107;28;20125;-66
2022/05/06 14:15:00;;;;;;;5.82;3.55;;;;;;;;;;5077847;28;20055;-66
2022/05/06 14:17:26;;;;;;;6.68;4.28;;;;;;;;;;5085711;28;20141;-66
2022/05/06 14:19:53;;;;;;;5.10;4.18;;;;;;;;;;5085895;28;20128;-67
2022/05/06 14:22:19;;;;;;;6.80;5.25;;;;;;;;;;5085738;28;20051;-66
2022/05/06 14:24:46;;;;;;;7.30;5.30;;;;;;;;;;5085757;28;20040;-67
2022/05/06 14:27:15;;;;;;;8.93;5.53;;;;;;;;;;5085771;28;20108;-67
2022/05/06 14:29:41;;;;;;;6.88;4.88;;;;;;;;;;5085715;28;20047;-67
2022/05/06 14:32:07;;;;;;;6.38;5.25;;;;;;;;;;5083483;28;20082;-67
2022/05/06 14:34:33;;;;;;;11.77;4.90;;;;;;;;;;5085564;28;20120;-67
2022/05/06 14:36:59;;;;;;;7.28;5.47;;;;;;;;;;5084810;28;20048;-66
2022/05/06 14:39:26;;;;;;;7.05;5.38;;;;;;;;;;5085148;28;20047;-67
2022/05/06 14:41:52;;;;;;;6.88;5.60;;;;;;;;;;5084391;28;20087;-67
2022/05/06 14:44:18;;;;;;;8.60;5.40;;;;;;;;;;5085395;28;20411;-67
2022/05/06 14:46:44;;;;;;;8.13;5.38;;;;;;;;;;5083096;28;20101;-66
2022/05/06 14:49:10;;;;;;;8.88;5.85;;;;;;;;;;5085186;28;20496;-66
2022/05/06 14:51:36;;;;;;;8.32;6.03;;;;;;;;;;5085065;28;20078;-67
2022/05/06 14:54:03;;;;;;;12.55;6.13;;;;;;;;;;5084953;28;20032;-66
2022/05/06 14:56:30;;;;;;;11.77;6.90;;;;;;;;;;5085033;28;20070;-66
2022/05/06 14:58:57;;;;;;;10.35;6.85;;;;;;;;;;5085370;28;20075;-66
2022/05/06 15:01:24;;;;;;;7.65;6.45;;;;;;;;;;5084937;28;20102;-67
2022/05/06 15:03:50;;;;;;;9.93;6.65;;;;;;;;;;5064796;28;20068;-66
2022/05/06 15:06:16;;;;;;;8.13;6.60;;;;;;;;;;5064937;28;20049;-67
2022/05/06 15:08:42;;;;;;;10.85;7.18;;;;;;;;;;5064859;28;20073;-67